Helene — V2BK5 — position and weather

sailwx.info

Track history (hours):
 
Tides and Currents Weather Stations Pressure Air Temp Water Temp Dewpoint Dewpoint Depression Visibility Wind Speed Wind Dir Waves Ship Positions

Helene

Last reported at 2015-Jul-30 15:30 UTC. Time now 2015-Jul-31 09:24 UTC.
Position N 35°43' W 000°38'.

Length 140 m; draft 8 m.

Type: Cargo ship. MMSI: 304846000.

Date/timePositionNaut miles runAvg speedWind from/ knotsBaromVisibWave heightAir tempDewpointWater temp
2015-Jul-30 15:30N 35°43' W 000°38'0 0.0
2015-Jul-30 14:24N 35°43' W 000°38'0 0.0
2015-Jul-30 02:30N 35°43' W 000°38'2 0.5
2015-Jul-29 23:08N 35°44' W 000°37'1 1.1
2015-Jul-29 22:33N 35°45' W 000°38'0 0.2
2015-Jul-29 20:30N 35°45' W 000°37'0 0.1
2015-Jul-29 18:24N 35°45' W 000°37'0 0.0
2015-Jul-29 17:30N 35°45' W 000°37'0 0.0
2015-Jul-29 16:30N 35°45' W 000°37'0 0.0
2015-Jul-29 15:30N 35°45' W 000°37'0 0.0
2015-Jul-29 14:32N 35°45' W 000°37'0 0.0
2015-Jul-29 13:29N 35°45' W 000°37'0 0.0
2015-Jul-29 12:11N 35°45' W 000°37'0 0.0
2015-Jul-29 11:29N 35°45' W 000°37'0 0.0
2015-Jul-29 10:23N 35°45' W 000°37'0 0.0
2015-Jul-29 07:12N 35°45' W 000°37'0 0.2
2015-Jul-29 06:30N 35°45' W 000°37'0 0.0
2015-Jul-29 05:18N 35°45' W 000°37'0 0.0
2015-Jul-29 04:24N 35°45' W 000°37'0 0.0
2015-Jul-29 03:30N 35°45' W 000°37'0 0.1
2015-Jul-29 01:29N 35°45' W 000°37'0 0.0
2015-Jul-28 20:24N 35°45' W 000°37'0 0.0
2015-Jul-28 19:05N 35°45' W 000°37'0 0.0
2015-Jul-28 18:25N 35°45' W 000°37'0 0.0
2015-Jul-28 17:29N 35°45' W 000°37'0 0.0
2015-Jul-28 16:29N 35°45' W 000°37'0 0.0
2015-Jul-28 15:29N 35°45' W 000°37'0 0.0
2015-Jul-28 14:29N 35°45' W 000°37'0 0.0
2015-Jul-28 13:30N 35°45' W 000°37'0 0.0
2015-Jul-28 12:30N 35°45' W 000°37'0 0.0
2015-Jul-28 11:12N 35°45' W 000°37'0 0.0
2015-Jul-28 01:23N 35°45' W 000°37'0 0.0
2015-Jul-28 00:29N 35°45' W 000°37'0 0.0
2015-Jul-27 23:27N 35°45' W 000°37'0 0.0
2015-Jul-27 22:29N 35°45' W 000°37'0 0.0
2015-Jul-27 21:33N 35°45' W 000°37'0 0.0
2015-Jul-27 20:32N 35°45' W 000°37'0 0.0
2015-Jul-27 19:26N 35°45' W 000°37'0 0.0
2015-Jul-27 18:32N 35°45' W 000°37'0 0.0
2015-Jul-27 17:30N 35°45' W 000°37'0 0.0
2015-Jul-27 16:29N 35°45' W 000°37'0 0.0
2015-Jul-27 15:33N 35°45' W 000°37'0 0.0
2015-Jul-27 14:29N 35°45' W 000°37'0 0.0
2015-Jul-27 13:33N 35°45' W 000°37'0 0.0
2015-Jul-27 12:33N 35°45' W 000°37'0 0.0
2015-Jul-27 11:32N 35°45' W 000°37'0 0.0
2015-Jul-27 10:32N 35°45' W 000°37'0 0.0
2015-Jul-27 09:32N 35°45' W 000°37'0 0.0
2015-Jul-27 06:23N 35°45' W 000°37'0 0.0
2015-Jul-27 03:09N 35°45' W 000°37'0 0.0
2015-Jul-27 01:21N 35°45' W 000°37'0 0.0
2015-Jul-27 00:23N 35°45' W 000°37'0 0.1
2015-Jul-26 23:29N 35°45' W 000°37'0 0.0
2015-Jul-26 22:29N 35°45' W 000°37'0 0.0
2015-Jul-26 21:32N 35°45' W 000°37'0 0.0
2015-Jul-26 20:29N 35°45' W 000°37'0 0.0
2015-Jul-26 19:33N 35°45' W 000°37'0 0.0
2015-Jul-26 18:33N 35°45' W 000°37'0 0.0
2015-Jul-26 16:23N 35°45' W 000°37'0 0.0
2015-Jul-26 12:14N 35°45' W 000°37'0 0.0
2015-Jul-25 19:08N 35°45' W 000°37'0 0.0
2015-Jul-25 15:32N 35°45' W 000°37'28 6.7
2015-Jul-25 11:20N 35°53' W 001°11'1011.9
2015-Jul-25 10:29N 35°55' W 001°23'1213.0
2015-Jul-25 09:33N 35°57' W 001°38'1212.4
2015-Jul-25 08:34N 35°59' W 001°53'4112.5
2015-Jul-25 05:16N 36°07' W 002°42'811.8
2015-Jul-25 04:34N 36°09' W 002°53'1211.8
2015-Jul-25 03:33N 36°10' W 003°07'66 1.4
2015-Jul-23 03:32N 36°00' W 001°47'1413.7
2015-Jul-23 02:31N 35°58' W 001°30'1313.2
2015-Jul-23 01:32N 35°56' W 001°14'1312.6
2015-Jul-23 00:30N 35°54' W 000°58'1512.8
2015-Jul-22 23:18N 35°52' W 000°40'911.2
2015-Jul-22 22:31N 35°43' W 000°38'0 0.1
2015-Jul-22 20:12N 35°43' W 000°38'0 0.0
2015-Jul-22 17:18N 35°43' W 000°38'0 0.0
2015-Jul-22 16:30N 35°43' W 000°38'0 0.0
2015-Jul-22 15:29N 35°43' W 000°38'0 0.0
2015-Jul-22 14:29N 35°43' W 000°38'0 0.0
2015-Jul-22 13:30N 35°43' W 000°38'0 0.0
2015-Jul-22 12:30N 35°43' W 000°38'0 0.0
2015-Jul-22 11:30N 35°43' W 000°38'0 0.0
2015-Jul-22 10:30N 35°43' W 000°38'0 0.0
2015-Jul-22 05:30N 35°43' W 000°38'0 0.0
2015-Jul-22 04:29N 35°43' W 000°38'0 0.0
2015-Jul-22 03:29N 35°43' W 000°38'0 0.0
2015-Jul-22 00:11N 35°43' W 000°38'0 0.0
2015-Jul-21 23:17N 35°43' W 000°38'0 0.0
2015-Jul-21 21:17N 35°43' W 000°38'0 0.0
2015-Jul-21 20:24N 35°43' W 000°38'0 0.0
2015-Jul-21 19:30N 35°43' W 000°38'0 0.0
2015-Jul-21 18:24N 35°43' W 000°38'0 0.0
2015-Jul-21 16:32N 35°43' W 000°38'0 0.0
2015-Jul-21 15:30N 35°43' W 000°38'0 0.0
2015-Jul-21 14:30N 35°43' W 000°38'0 0.0
2015-Jul-21 13:30N 35°43' W 000°38'0 0.0
2015-Jul-21 12:24N 35°43' W 000°38'0 0.0
2015-Jul-21 11:32N 35°43' W 000°38'0 0.0
2015-Jul-21 10:24N 35°43' W 000°38'0 0.0
2015-Jul-21 08:20N 35°43' W 000°38'0 0.0
2015-Jul-21 07:30N 35°43' W 000°38'0 0.0
2015-Jul-21 06:30N 35°43' W 000°38'0 0.0
2015-Jul-21 05:30N 35°43' W 000°38'0 0.0
2015-Jul-21 04:06N 35°43' W 000°38'0 0.0
2015-Jul-21 03:30N 35°43' W 000°38'0 0.0
2015-Jul-21 02:18N 35°43' W 000°38'0 0.0
2015-Jul-21 00:23N 35°43' W 000°38'0 0.0
2015-Jul-20 21:32N 35°43' W 000°38'0 0.0
2015-Jul-20 18:06N 35°43' W 000°38'  
Track history (hours):
 
Tides and Currents Weather Stations Pressure Air Temp Water Temp Dewpoint Dewpoint Depression Visibility Wind Speed Wind Dir Waves Ship Positions

Helene

Last reported at 2015-Jul-30 15:30 UTC. Time now 2015-Jul-31 09:24 UTC.
Position N 35°43' W 000°38'.

Length 140 m; draft 8 m.

Type: Cargo ship. MMSI: 304846000.

Date/timePositionNaut miles runAvg speedWind from/ knotsBaromVisibWave heightAir tempDewpointWater temp
2015-Jul-30 15:30N 35°43' W 000°38'0 0.0
2015-Jul-30 14:24N 35°43' W 000°38'0 0.0
2015-Jul-30 02:30N 35°43' W 000°38'2 0.5
2015-Jul-29 23:08N 35°44' W 000°37'1 1.1
2015-Jul-29 22:33N 35°45' W 000°38'0 0.2
2015-Jul-29 20:30N 35°45' W 000°37'0 0.1
2015-Jul-29 18:24N 35°45' W 000°37'0 0.0
2015-Jul-29 17:30N 35°45' W 000°37'0 0.0
2015-Jul-29 16:30N 35°45' W 000°37'0 0.0
2015-Jul-29 15:30N 35°45' W 000°37'0 0.0
2015-Jul-29 14:32N 35°45' W 000°37'0 0.0
2015-Jul-29 13:29N 35°45' W 000°37'0 0.0
2015-Jul-29 12:11N 35°45' W 000°37'0 0.0
2015-Jul-29 11:29N 35°45' W 000°37'0 0.0
2015-Jul-29 10:23N 35°45' W 000°37'0 0.0
2015-Jul-29 07:12N 35°45' W 000°37'0 0.2
2015-Jul-29 06:30N 35°45' W 000°37'0 0.0
2015-Jul-29 05:18N 35°45' W 000°37'0 0.0
2015-Jul-29 04:24N 35°45' W 000°37'0 0.0
2015-Jul-29 03:30N 35°45' W 000°37'0 0.1
2015-Jul-29 01:29N 35°45' W 000°37'0 0.0
2015-Jul-28 20:24N 35°45' W 000°37'0 0.0
2015-Jul-28 19:05N 35°45' W 000°37'0 0.0
2015-Jul-28 18:25N 35°45' W 000°37'0 0.0
2015-Jul-28 17:29N 35°45' W 000°37'0 0.0
2015-Jul-28 16:29N 35°45' W 000°37'0 0.0
2015-Jul-28 15:29N 35°45' W 000°37'0 0.0
2015-Jul-28 14:29N 35°45' W 000°37'0 0.0
2015-Jul-28 13:30N 35°45' W 000°37'0 0.0
2015-Jul-28 12:30N 35°45' W 000°37'0 0.0
2015-Jul-28 11:12N 35°45' W 000°37'0 0.0
2015-Jul-28 01:23N 35°45' W 000°37'0 0.0
2015-Jul-28 00:29N 35°45' W 000°37'0 0.0
2015-Jul-27 23:27N 35°45' W 000°37'0 0.0
2015-Jul-27 22:29N 35°45' W 000°37'0 0.0
2015-Jul-27 21:33N 35°45' W 000°37'0 0.0
2015-Jul-27 20:32N 35°45' W 000°37'0 0.0
2015-Jul-27 19:26N 35°45' W 000°37'0 0.0
2015-Jul-27 18:32N 35°45' W 000°37'0 0.0
2015-Jul-27 17:30N 35°45' W 000°37'0 0.0
2015-Jul-27 16:29N 35°45' W 000°37'0 0.0
2015-Jul-27 15:33N 35°45' W 000°37'0 0.0
2015-Jul-27 14:29N 35°45' W 000°37'0 0.0
2015-Jul-27 13:33N 35°45' W 000°37'0 0.0
2015-Jul-27 12:33N 35°45' W 000°37'0 0.0
2015-Jul-27 11:32N 35°45' W 000°37'0 0.0
2015-Jul-27 10:32N 35°45' W 000°37'0 0.0
2015-Jul-27 09:32N 35°45' W 000°37'0 0.0
2015-Jul-27 06:23N 35°45' W 000°37'0 0.0
2015-Jul-27 03:09N 35°45' W 000°37'0 0.0
2015-Jul-27 01:21N 35°45' W 000°37'0 0.0
2015-Jul-27 00:23N 35°45' W 000°37'0 0.1
2015-Jul-26 23:29N 35°45' W 000°37'0 0.0
2015-Jul-26 22:29N 35°45' W 000°37'0 0.0
2015-Jul-26 21:32N 35°45' W 000°37'0 0.0
2015-Jul-26 20:29N 35°45' W 000°37'0 0.0
2015-Jul-26 19:33N 35°45' W 000°37'0 0.0
2015-Jul-26 18:33N 35°45' W 000°37'0 0.0
2015-Jul-26 16:23N 35°45' W 000°37'0 0.0
2015-Jul-26 12:14N 35°45' W 000°37'0 0.0
2015-Jul-25 19:08N 35°45' W 000°37'0 0.0
2015-Jul-25 15:32N 35°45' W 000°37'28 6.7
2015-Jul-25 11:20N 35°53' W 001°11'1011.9
2015-Jul-25 10:29N 35°55' W 001°23'1213.0
2015-Jul-25 09:33N 35°57' W 001°38'1212.4
2015-Jul-25 08:34N 35°59' W 001°53'4112.5
2015-Jul-25 05:16N 36°07' W 002°42'811.8
2015-Jul-25 04:34N 36°09' W 002°53'1211.8
2015-Jul-25 03:33N 36°10' W 003°07'66 1.4
2015-Jul-23 03:32N 36°00' W 001°47'1413.7
2015-Jul-23 02:31N 35°58' W 001°30'1313.2
2015-Jul-23 01:32N 35°56' W 001°14'1312.6
2015-Jul-23 00:30N 35°54' W 000°58'1512.8
2015-Jul-22 23:18N 35°52' W 000°40'911.2
2015-Jul-22 22:31N 35°43' W 000°38'0 0.1
2015-Jul-22 20:12N 35°43' W 000°38'0 0.0
2015-Jul-22 17:18N 35°43' W 000°38'0 0.0
2015-Jul-22 16:30N 35°43' W 000°38'0 0.0
2015-Jul-22 15:29N 35°43' W 000°38'0 0.0
2015-Jul-22 14:29N 35°43' W 000°38'0 0.0
2015-Jul-22 13:30N 35°43' W 000°38'0 0.0
2015-Jul-22 12:30N 35°43' W 000°38'0 0.0
2015-Jul-22 11:30N 35°43' W 000°38'0 0.0
2015-Jul-22 10:30N 35°43' W 000°38'0 0.0
2015-Jul-22 05:30N 35°43' W 000°38'0 0.0
2015-Jul-22 04:29N 35°43' W 000°38'0 0.0
2015-Jul-22 03:29N 35°43' W 000°38'0 0.0
2015-Jul-22 00:11N 35°43' W 000°38'0 0.0
2015-Jul-21 23:17N 35°43' W 000°38'0 0.0
2015-Jul-21 21:17N 35°43' W 000°38'0 0.0
2015-Jul-21 20:24N 35°43' W 000°38'0 0.0
2015-Jul-21 19:30N 35°43' W 000°38'0 0.0
2015-Jul-21 18:24N 35°43' W 000°38'0 0.0
2015-Jul-21 16:32N 35°43' W 000°38'0 0.0
2015-Jul-21 15:30N 35°43' W 000°38'0 0.0
2015-Jul-21 14:30N 35°43' W 000°38'0 0.0
2015-Jul-21 13:30N 35°43' W 000°38'0 0.0
2015-Jul-21 12:24N 35°43' W 000°38'0 0.0
2015-Jul-21 11:32N 35°43' W 000°38'0 0.0
2015-Jul-21 10:24N 35°43' W 000°38'0 0.0
2015-Jul-21 08:20N 35°43' W 000°38'0 0.0
2015-Jul-21 07:30N 35°43' W 000°38'0 0.0
2015-Jul-21 06:30N 35°43' W 000°38'0 0.0
2015-Jul-21 05:30N 35°43' W 000°38'0 0.0
2015-Jul-21 04:06N 35°43' W 000°38'0 0.0
2015-Jul-21 03:30N 35°43' W 000°38'0 0.0
2015-Jul-21 02:18N 35°43' W 000°38'0 0.0
2015-Jul-21 00:23N 35°43' W 000°38'0 0.0
2015-Jul-20 21:32N 35°43' W 000°38'0 0.0
2015-Jul-20 18:06N 35°43' W 000°38'  

Dump ship's entire track history